Time;durP1;ratioP1;P1;durP2;ratioP2;P2;SDS_P1;SDS_P2;PMS_P1;PMS_P2;Temp;Humidity;BMP_temperature;BMP_pressure;BME280_temperature;BME280_humidity;BME280_pressure;Samples;Min_cycle;Max_cycle;Signal;HPM_P1;HPM_P2
2022/11/11 00:01:00;;;;;;;77.13;39.53;;;;;;;9.63;68.68;100812.13;3169612;28;20066;-71
2022/11/11 00:02:31;;;;;;;79.05;39.67;;;;;;;9.63;68.69;100812.13;3165866;28;20051;-70
2022/11/11 00:04:03;;;;;;;81.00;40.08;;;;;;;9.63;68.78;100807.75;3169497;28;20049;-71
2022/11/11 00:05:35;;;;;;;83.03;42.50;;;;;;;9.62;68.73;100813.03;3169769;28;20058;-71
2022/11/11 00:07:07;;;;;;;78.28;40.38;;;;;;;9.62;68.73;100803.47;3169023;28;20074;-72
2022/11/11 00:08:39;;;;;;;85.78;40.92;;;;;;;9.61;68.75;100801.75;3169703;28;20071;-71
2022/11/11 00:10:09;;;;;;;77.18;39.22;;;;;;;9.63;68.50;100804.31;3169563;28;20112;-72
2022/11/11 00:11:41;;;;;;;82.45;40.13;;;;;;;9.62;68.65;100811.28;3169424;28;20051;-71
2022/11/11 00:13:14;;;;;;;84.13;38.90;;;;;;;9.62;68.84;100800.88;3169735;28;20065;-72
2022/11/11 00:14:45;;;;;;;75.43;39.67;;;;;;;9.61;68.59;100804.34;3169687;28;20420;-72
2022/11/11 00:16:19;;;;;;;73.38;39.03;;;;;;;9.60;68.97;100807.84;3169678;28;20059;-72
2022/11/11 00:25:13;;;;;;;79.45;39.00;;;;;;;9.48;69.57;100805.56;3169675;28;20073;-71
2022/11/11 00:26:45;;;;;;;76.57;38.75;;;;;;;9.46;69.40;100799.53;3168678;28;20055;-72
2022/11/11 00:28:18;;;;;;;71.68;37.17;;;;;;;9.48;69.48;100808.16;3171755;27;20473;-72
2022/11/11 00:29:50;;;;;;;73.10;35.35;;;;;;;9.43;69.79;100805.66;3170563;27;20440;-72
2022/11/11 00:31:22;;;;;;;71.10;35.65;;;;;;;9.38;69.94;100796.28;3169101;28;20048;-72
2022/11/11 00:32:53;;;;;;;72.47;37.15;;;;;;;9.38;69.60;100804.09;3169476;28;20047;-72
2022/11/11 00:34:25;;;;;;;71.60;35.50;;;;;;;9.32;69.88;100798.13;3169433;28;20062;-73
2022/11/11 00:35:56;;;;;;;67.70;36.25;;;;;;;9.30;70.04;100806.84;3169265;28;20081;-72
2022/11/11 00:37:27;;;;;;;65.65;34.38;;;;;;;9.22;70.22;100788.81;3168831;28;20051;-72
2022/11/11 00:38:58;;;;;;;62.47;34.50;;;;;;;9.23;70.33;100797.47;3169387;28;20050;-72
2022/11/11 00:40:30;;;;;;;68.97;35.75;;;;;;;9.24;70.44;100807.84;3171915;27;20051;-72
2022/11/11 00:42:02;;;;;;;69.82;34.58;;;;;;;9.22;70.38;100806.16;3168999;28;20051;-72
2022/11/11 00:43:35;;;;;;;71.55;34.67;;;;;;;9.21;70.41;100804.47;3169389;28;20055;-71
2022/11/11 00:45:08;;;;;;;65.65;34.53;;;;;;;9.18;70.67;100809.75;3169185;28;20051;-72
2022/11/11 00:52:10;;;;;;;66.32;33.20;;;;;;;9.05;71.23;100809.16;3169206;28;20409;-71
2022/11/11 00:53:42;;;;;;;63.40;34.20;;;;;;;9.05;70.95;100798.75;3168907;28;20093;-71
2022/11/11 00:55:13;;;;;;;72.53;35.67;;;;;;;9.10;70.89;100802.09;3169124;28;20056;-71
2022/11/11 00:56:45;;;;;;;73.82;35.95;;;;;;;9.01;70.86;100779.78;3169310;28;20597;-71
2022/11/11 00:58:16;;;;;;;69.43;35.22;;;;;;;9.10;70.74;100792.56;3168728;28;20052;-70
2022/11/11 00:59:49;;;;;;;70.80;35.58;;;;;;;9.11;70.94;100793.44;3169465;28;20047;-71
2022/11/11 01:01:21;;;;;;;78.70;36.88;;;;;;;9.10;71.20;100794.31;3168994;28;20105;-71
2022/11/11 01:02:53;;;;;;;64.28;35.50;;;;;;;9.09;71.23;100790.03;3168921;28;20529;-71
2022/11/11 01:04:25;;;;;;;71.15;36.05;;;;;;;9.08;70.97;100789.16;3169405;28;20109;-71
2022/11/11 01:05:59;;;;;;;65.70;35.03;;;;;;;9.08;71.05;100783.09;3168706;28;20039;-71
2022/11/11 01:07:31;;;;;;;67.63;35.88;;;;;;;9.11;71.28;100789.09;3168652;28;20122;-71
2022/11/11 01:09:05;;;;;;;69.45;35.08;;;;;;;9.10;71.13;100796.91;3168711;28;20055;-71
2022/11/11 01:10:42;;;;;;;63.42;34.60;;;;;;;9.07;71.08;100791.78;3169006;28;20054;-71
2022/11/11 01:12:13;;;;;;;68.65;34.67;;;;;;;9.03;71.45;100787.56;3168860;28;20052;-70
2022/11/11 01:13:46;;;;;;;66.35;35.42;;;;;;;9.00;71.22;100791.09;3169192;28;20051;-71
2022/11/11 01:15:18;;;;;;;71.90;35.15;;;;;;;8.98;71.48;100789.41;3168874;28;20105;-72
2022/11/11 01:16:50;;;;;;;66.00;34.72;;;;;;;8.95;71.60;100784.28;3168948;28;20104;-72
2022/11/11 01:18:22;;;;;;;68.55;35.88;;;;;;;8.91;71.97;100786.09;3168651;28;20809;-72
2022/11/11 01:19:54;;;;;;;74.35;37.22;;;;;;;8.87;71.57;100777.53;3168907;28;20116;-72
2022/11/11 01:21:26;;;;;;;64.65;33.83;;;;;;;8.89;71.87;100774.88;3168677;28;20492;-72
2022/11/11 01:22:57;;;;;;;72.80;35.72;;;;;;;8.85;71.57;100776.69;3168840;28;20044;-72
2022/11/11 01:24:29;;;;;;;70.80;35.88;;;;;;;8.86;71.84;100769.75;3169047;28;20421;-72
2022/11/11 01:26:04;;;;;;;68.63;36.47;;;;;;;8.88;71.70;100773.19;3168621;28;20048;-71
2022/11/11 01:27:36;;;;;;;65.97;35.05;;;;;;;8.88;71.73;100778.38;3168925;28;20051;-72
2022/11/11 01:29:08;;;;;;;66.32;35.40;;;;;;;8.85;71.99;100774.09;3178720;28;20043;-72
2022/11/11 01:30:40;;;;;;;66.97;35.45;;;;;;;8.88;71.72;100778.38;3172780;28;20109;-71
2022/11/11 01:32:12;;;;;;;65.35;34.78;;;;;;;8.85;71.73;100771.50;3168820;28;20048;-71
2022/11/11 01:33:44;;;;;;;72.00;34.90;;;;;;;8.83;72.11;100773.28;3169137;28;20055;-71
2022/11/11 01:35:15;;;;;;;65.40;33.95;;;;;;;8.79;71.78;100765.59;3168618;28;20044;-71
2022/11/11 01:36:46;;;;;;;65.05;35.58;;;;;;;8.80;72.01;100769.91;3168826;28;20052;-71
2022/11/11 01:38:18;;;;;;;74.97;34.70;;;;;;;8.79;72.16;100769.03;3168838;28;20051;-71
2022/11/11 01:39:50;;;;;;;60.25;33.67;;;;;;;8.80;72.15;100773.34;3170708;28;20047;-71
2022/11/11 01:43:22;;;;;;;65.28;33.17;;;;;;;8.74;72.20;100757.06;3168206;28;20622;-70
2022/11/11 01:44:54;;;;;;;67.70;34.60;;;;;;;8.73;72.27;100761.41;3165516;28;20060;-70
2022/11/11 01:46:33;;;;;;;71.45;34.30;;;;;;;8.74;72.21;100757.06;3168885;28;20388;-71
2022/11/11 01:50:01;;;;;;;64.72;34.13;;;;;;;8.70;72.30;100761.47;3158066;28;20517;-71
2022/11/11 01:51:36;;;;;;;59.65;32.80;;;;;;;8.65;72.66;100755.50;3170640;28;20400;-71
2022/11/11 01:53:08;;;;;;;65.22;33.08;;;;;;;8.65;72.49;100758.94;3171046;28;20051;-71
2022/11/11 01:54:44;;;;;;;68.07;33.92;;;;;;;8.62;72.68;100750.38;3170947;28;20541;-71
2022/11/11 01:56:15;;;;;;;65.20;33.17;;;;;;;8.63;72.66;100754.69;3171295;28;20077;-72
2022/11/11 01:57:51;;;;;;;68.70;33.70;;;;;;;8.64;72.74;100753.81;3171161;28;20047;-71
2022/11/11 01:59:24;;;;;;;61.80;33.50;;;;;;;8.67;72.49;100761.53;3170813;28;20047;-70
2022/11/11 02:00:56;;;;;;;66.28;33.33;;;;;;;8.67;72.41;100761.53;3170992;28;20413;-70
2022/11/11 02:02:36;;;;;;;67.57;34.00;;;;;;;8.71;72.16;100762.31;3166434;28;20052;-72
2022/11/11 02:06:06;;;;;;;62.92;32.35;;;;;;;8.65;72.29;100752.91;3145447;28;20063;-70
2022/11/11 02:07:40;;;;;;;67.22;32.95;;;;;;;8.77;72.19;100772.56;3170927;28;20066;-71
2022/11/11 02:09:12;;;;;;;71.07;34.88;;;;;;;8.69;71.91;100759.72;3170863;27;20052;-71
2022/11/11 02:10:46;;;;;;;64.57;33.10;;;;;;;8.80;72.08;100769.91;3171169;28;20173;-70
2022/11/11 02:15:58;;;;;;;65.35;32.63;;;;;;;8.67;72.29;100766.72;3161320;28;20568;-71
2022/11/11 02:17:32;;;;;;;67.68;36.38;;;;;;;8.63;72.28;100757.28;3170895;28;20528;-71
2022/11/11 02:19:04;;;;;;;67.32;34.13;;;;;;;8.63;72.30;100762.47;3170734;28;20655;-70
2022/11/11 02:20:38;;;;;;;62.70;33.78;;;;;;;8.63;72.35;100765.06;3171124;28;20048;-71
2022/11/11 02:22:12;;;;;;;;;;;;;;;8.56;72.46;100766.94;3171172;27;20047;-71
2022/11/11 02:23:48;;;;;;;64.32;32.80;;;;;;;8.54;72.60;100770.47;3170622;28;20142;-70
2022/11/11 02:25:26;;;;;;;63.90;31.83;;;;;;;8.56;72.43;100773.88;3171049;27;20047;-71
2022/11/11 02:26:58;;;;;;;66.03;32.67;;;;;;;8.63;72.18;100773.69;3170605;28;20058;-70
2022/11/11 02:28:33;;;;;;;60.92;32.80;;;;;;;8.64;72.36;100774.59;3174984;27;20051;-70
2022/11/11 02:30:14;;;;;;;68.68;33.22;;;;;;;8.68;71.99;100778.81;3180173;27;20067;-71
2022/11/11 02:31:45;;;;;;;57.47;32.17;;;;;;;8.48;72.07;100747.22;3170612;28;20039;-70
2022/11/11 02:33:17;;;;;;;63.70;32.05;;;;;;;8.71;71.98;100778.75;3161282;28;20224;-71
2022/11/11 02:34:49;;;;;;;62.47;32.53;;;;;;;8.73;71.84;100782.16;3161693;28;20361;-71
2022/11/11 02:36:21;;;;;;;57.30;31.15;;;;;;;8.75;71.67;100788.16;3160876;28;20540;-70
2022/11/11 02:37:53;;;;;;;60.75;31.35;;;;;;;8.75;71.50;100785.56;3161821;28;20047;-71
2022/11/11 02:39:26;;;;;;;68.25;34.72;;;;;;;8.37;71.54;100717.13;3160363;28;20047;-70
2022/11/11 02:42:51;;;;;;;63.03;32.13;;;;;;;8.76;71.29;100784.69;3142621;28;20087;-70
2022/11/11 02:44:23;;;;;;;64.68;31.98;;;;;;;8.78;71.44;100782.91;3160982;27;20055;-70
2022/11/11 02:45:55;;;;;;;69.18;35.90;;;;;;;8.79;71.23;100783.78;3161221;28;20504;-71
2022/11/11 02:47:27;;;;;;;65.78;33.58;;;;;;;8.79;71.18;100781.19;3161159;28;20139;-71
2022/11/11 02:48:59;;;;;;;65.28;33.40;;;;;;;8.80;71.35;100788.94;3160607;28;20516;-70
2022/11/11 02:50:31;;;;;;;60.17;30.50;;;;;;;8.77;71.22;100777.75;3161383;28;20063;-71
2022/11/11 02:52:03;;;;;;;65.72;31.25;;;;;;;8.83;71.28;100782.81;3161360;27;20051;-71
2022/11/11 02:53:35;;;;;;;56.03;30.75;;;;;;;8.84;71.33;100784.50;3161085;28;20100;-70
2022/11/11 02:55:07;;;;;;;59.72;32.15;;;;;;;8.84;71.43;100779.31;3160694;28;20522;-70
2022/11/11 02:58:30;;;;;;;60.70;32.70;;;;;;;8.80;71.28;100778.53;3160864;28;20083;-70
2022/11/11 03:00:03;;;;;;;62.20;32.42;;;;;;;8.84;71.28;100784.50;3160979;27;20593;-70
2022/11/11 03:01:35;;;;;;;60.50;31.60;;;;;;;8.83;70.99;100786.25;3160072;27;20047;-70
2022/11/11 03:03:07;;;;;;;53.50;30.02;;;;;;;8.82;71.26;100775.91;3161043;28;20047;-71
2022/11/11 03:04:39;;;;;;;58.08;30.77;;;;;;;8.81;71.12;100785.44;3161597;28;20122;-70
2022/11/11 03:06:11;;;;;;;60.25;31.23;;;;;;;8.84;71.17;100785.38;3159911;28;20047;-71
2022/11/11 03:07:42;;;;;;;58.10;30.70;;;;;;;8.84;71.07;100793.19;3160483;27;20282;-70
2022/11/11 03:09:14;;;;;;;60.72;31.33;;;;;;;8.85;71.36;100788.84;3161534;28;20489;-70
2022/11/11 03:10:46;;;;;;;58.25;32.00;;;;;;;8.83;71.09;100791.44;3160365;28;20621;-70
2022/11/11 03:12:19;;;;;;;54.78;30.08;;;;;;;8.85;71.21;100789.69;3160653;28;20113;-70
2022/11/11 03:13:51;;;;;;;;;;;;;;;8.76;71.21;100794.25;3160665;28;20066;-70
2022/11/11 03:15:22;;;;;;;58.25;29.83;;;;;;;8.73;71.46;100800.34;3160406;28;19923;-70
2022/11/11 03:18:43;;;;;;;59.75;31.15;;;;;;;8.74;71.30;100804.63;3161537;28;20051;-70
2022/11/11 03:22:07;;;;;;;58.80;28.65;;;;;;;8.69;71.37;100800.44;3160270;28;20047;-71
2022/11/11 03:23:38;;;;;;;62.25;32.85;;;;;;;8.70;71.52;100804.75;3159935;28;20055;-72
2022/11/11 03:26:59;;;;;;;55.33;30.38;;;;;;;8.72;71.16;100800.38;3159807;28;20052;-71
2022/11/11 03:28:32;;;;;;;62.20;31.45;;;;;;;8.73;71.10;100800.34;3164263;27;20141;-71
2022/11/11 03:30:05;;;;;;;58.87;31.27;;;;;;;8.73;71.23;100796.91;3169509;27;20134;-71
2022/11/11 03:31:36;;;;;;;60.33;31.00;;;;;;;8.70;71.05;100787.44;3159810;28;20305;-70
2022/11/11 03:33:09;;;;;;;55.78;30.40;;;;;;;8.74;71.01;100786.47;3159781;28;20054;-71
2022/11/11 03:34:40;;;;;;;53.80;31.02;;;;;;;8.69;70.88;100793.50;3160608;28;20051;-70
2022/11/11 03:36:12;;;;;;;61.38;33.58;;;;;;;8.71;70.82;100785.69;3160442;28;20492;-71
2022/11/11 03:39:32;;;;;;;60.65;30.73;;;;;;;8.55;70.54;100782.56;3160382;28;20195;-70
2022/11/11 03:41:04;;;;;;;61.35;32.13;;;;;;;8.52;70.49;100783.47;3162979;27;20634;-71
2022/11/11 03:42:36;;;;;;;59.78;31.88;;;;;;;8.53;70.62;100790.38;3160206;28;20047;-71
2022/11/11 03:44:09;;;;;;;62.05;30.98;;;;;;;8.54;70.61;100792.06;3160789;28;20051;-72
2022/11/11 03:45:41;;;;;;;;;;;;;;;8.45;70.42;100789.66;3161023;28;20112;-71
2022/11/11 03:47:15;;;;;;;70.07;36.05;;;;;;;8.44;70.33;100785.38;3160348;28;19931;-71
2022/11/11 03:48:47;;;;;;;65.30;34.00;;;;;;;8.15;70.32;100734.03;3160345;28;20055;-71
2022/11/11 03:50:19;;;;;;;58.80;32.13;;;;;;;8.44;70.20;100775.00;3160333;28;20055;-71
2022/11/11 03:51:51;;;;;;;57.80;32.45;;;;;;;8.39;70.33;100771.63;3160260;28;20077;-72
2022/11/11 03:53:23;;;;;;;56.72;31.00;;;;;;;8.39;70.24;100782.88;3160149;28;20364;-71
2022/11/11 03:54:54;;;;;;;64.43;31.02;;;;;;;8.39;70.46;100784.59;3160798;28;20055;-72
2022/11/11 03:56:26;;;;;;;58.47;31.02;;;;;;;8.37;70.28;100783.75;3160662;28;20067;-72
2022/11/11 03:57:57;;;;;;;59.13;31.45;;;;;;;8.33;70.05;100776.91;3159831;28;20136;-71
2022/11/11 03:59:31;;;;;;;58.75;30.95;;;;;;;8.34;70.28;100786.41;3160419;28;20123;-72
2022/11/11 04:10:21;;;;;;;63.95;31.55;;;;;;;8.31;69.94;100783.88;3160558;28;20085;-72
2022/11/11 04:10:32;;;;;;;58.17;30.15;;;;;;;8.13;70.00;100775.59;3132636;28;20054;-71
2022/11/11 04:12:04;;;;;;;60.60;30.88;;;;;;;8.12;69.97;100779.06;3132966;28;20045;-72
2022/11/11 04:17:17;;;;;;;58.42;30.85;;;;;;;8.06;70.21;100792.13;3147293;28;20086;-72
2022/11/11 04:22:32;;;;;;;68.28;32.28;;;;;;;8.01;70.29;100793.97;3148742;28;20139;-72
2022/11/11 04:25:47;;;;;;;64.05;32.85;;;;;;;8.02;70.37;100805.22;3160275;28;20534;-72
2022/11/11 04:25:59;;;;;;;52.20;29.52;;;;;;;8.01;70.51;100803.47;3168517;28;20445;-72
2022/11/11 04:27:31;;;;;;;55.30;30.80;;;;;;;7.99;70.53;100800.94;3169198;28;20134;-72
2022/11/11 04:30:52;;;;;;;59.60;31.10;;;;;;;8.00;70.33;100807.81;3172000;27;20052;-72
2022/11/11 04:32:37;;;;;;;63.10;31.17;;;;;;;7.99;70.11;100803.53;3169319;28;20474;-72
2022/11/11 04:34:08;;;;;;;61.00;31.10;;;;;;;7.90;70.29;100799.38;3169288;28;20054;-72
2022/11/11 04:35:40;;;;;;;63.60;32.58;;;;;;;7.97;70.55;100802.69;3169557;28;20048;-73
2022/11/11 04:37:12;;;;;;;59.15;31.25;;;;;;;8.00;70.51;100809.56;3168860;28;20147;-72
2022/11/11 04:42:32;;;;;;;56.58;30.40;;;;;;;7.96;70.51;100809.63;3169561;28;20039;-72
2022/11/11 04:45:58;;;;;;;61.70;30.55;;;;;;;7.93;70.67;100816.63;3169481;28;20126;-72
2022/11/11 04:47:29;;;;;;;57.05;32.45;;;;;;;7.91;70.72;100816.63;3168771;28;20641;-73
2022/11/11 04:49:01;;;;;;;67.07;33.88;;;;;;;7.88;70.60;100808.91;3169461;27;20574;-72
2022/11/11 04:50:35;;;;;;;62.92;32.63;;;;;;;7.91;70.78;100820.97;3169436;28;20048;-72
2022/11/11 04:52:26;;;;;;;61.67;31.15;;;;;;;7.90;70.94;100820.13;3169067;28;20065;-72
2022/11/11 04:53:58;;;;;;;69.35;33.25;;;;;;;7.88;71.13;100816.69;3169810;28;20537;-72
2022/11/11 04:57:18;;;;;;;62.65;32.60;;;;;;;7.84;71.37;100804.66;3169232;28;20043;-72
2022/11/11 04:59:14;;;;;;;70.75;33.45;;;;;;;7.87;71.54;100806.34;3169378;28;20136;-72
2022/11/11 05:00:42;;;;;;;64.65;33.15;;;;;;;7.77;71.76;100802.19;3159851;28;20044;-72
2022/11/11 05:04:03;;;;;;;59.28;32.97;;;;;;;7.83;72.03;100820.25;3169158;28;20048;-71
2022/11/11 05:09:10;;;;;;;72.95;33.55;;;;;;;7.86;71.77;100822.78;3180371;27;20054;-70
2022/11/11 05:10:41;;;;;;;71.30;34.38;;;;;;;7.90;71.85;100821.84;3177184;27;20043;-72
2022/11/11 05:12:13;;;;;;;63.75;33.55;;;;;;;7.91;71.77;100820.97;3181842;27;20050;-71
2022/11/11 05:21:21;;;;;;;63.90;33.00;;;;;;;7.91;71.82;100824.41;3168922;28;20052;-77
2022/11/11 05:22:53;;;;;;;61.10;31.95;;;;;;;7.91;72.04;100821.81;3180401;28;20043;-79
2022/11/11 05:26:13;;;;;;;64.68;31.80;;;;;;;7.91;71.52;100827.00;3171981;28;20071;-74
2022/11/11 05:27:45;;;;;;;83.53;38.88;;;;;;;7.91;71.64;100829.59;3182605;27;20848;-72
2022/11/11 05:29:17;;;;;;;173.20;85.22;;;;;;;7.92;71.49;100831.28;3181779;27;20051;-73
2022/11/11 05:30:48;;;;;;;120.95;57.00;;;;;;;7.86;71.70;100826.22;3183090;27;20127;-75
2022/11/11 05:32:21;;;;;;;78.80;39.10;;;;;;;7.94;71.57;100839.06;3184115;27;20043;-71
2022/11/11 05:33:54;;;;;;;63.47;31.58;;;;;;;7.92;71.26;100843.41;3167755;28;20048;-73
2022/11/11 05:35:26;;;;;;;169.52;82.30;;;;;;;7.87;71.20;100833.13;3172008;28;20047;-78
2022/11/11 05:36:58;;;;;;;108.88;53.85;;;;;;;7.90;71.30;100838.28;3177957;27;20521;-68
2022/11/11 05:38:30;;;;;;;129.52;68.63;;;;;;;7.84;71.44;100815.03;3179563;27;20047;-73
2022/11/11 05:40:02;;;;;;;266.90;132.40;;;;;;;7.95;71.31;100832.97;3171590;27;20047;-69
2022/11/11 05:41:34;;;;;;;94.13;49.65;;;;;;;8.02;71.20;100836.34;3179600;27;20114;-69
2022/11/11 05:43:06;;;;;;;78.55;36.90;;;;;;;8.08;71.23;100836.22;3177043;27;20055;-67
2022/11/11 05:44:38;;;;;;;68.10;34.25;;;;;;;8.16;70.95;100842.09;3171242;28;20051;-67
2022/11/11 05:46:10;;;;;;;62.13;33.55;;;;;;;8.21;70.93;100832.50;3170433;28;20052;-67
2022/11/11 05:47:41;;;;;;;72.75;33.70;;;;;;;8.28;71.00;100834.13;3170536;28;20043;-67
2022/11/11 05:49:14;;;;;;;72.28;31.17;;;;;;;8.33;70.98;100829.69;3169617;28;20126;-67
2022/11/11 05:50:45;;;;;;;66.80;33.55;;;;;;;8.39;70.67;100834.78;3170056;28;20047;-67
2022/11/11 05:52:18;;;;;;;67.95;33.42;;;;;;;8.47;70.74;100837.22;3170122;28;20048;-67
2022/11/11 05:53:50;;;;;;;64.15;34.65;;;;;;;8.52;70.84;100831.94;3170413;28;20058;-68
2022/11/11 05:55:22;;;;;;;76.75;34.90;;;;;;;8.57;70.77;100824.91;3170413;28;20048;-67
2022/11/11 05:56:54;;;;;;;70.70;33.08;;;;;;;8.75;70.73;100834.91;3170812;28;20047;-67
2022/11/11 05:58:26;;;;;;;66.80;32.38;;;;;;;8.88;70.63;100833.78;3170647;28;20055;-67
2022/11/11 05:59:58;;;;;;;75.05;33.85;;;;;;;9.07;70.28;100835.97;3170955;28;20048;-67
2022/11/11 06:01:30;;;;;;;64.78;33.05;;;;;;;9.18;70.36;100833.97;3171091;28;20106;-66
2022/11/11 06:03:03;;;;;;;64.43;32.25;;;;;;;9.37;69.62;100834.41;3170980;28;20112;-66
2022/11/11 06:04:36;;;;;;;70.13;31.15;;;;;;;9.55;69.35;100830.50;3171171;28;20138;-67
2022/11/11 06:06:08;;;;;;;62.50;31.42;;;;;;;9.73;69.32;100837.00;3171113;28;20047;-67
2022/11/11 06:07:40;;;;;;;59.42;31.13;;;;;;;9.90;68.62;100839.16;3170966;28;20912;-67
2022/11/11 06:09:12;;;;;;;68.35;32.65;;;;;;;10.05;68.64;100835.31;3170853;27;20448;-67
2022/11/11 06:10:43;;;;;;;63.08;30.88;;;;;;;10.17;68.53;100838.44;3171242;27;20048;-67
2022/11/11 06:12:15;;;;;;;57.85;28.15;;;;;;;10.33;67.88;100845.88;3171044;28;20047;-67
2022/11/11 06:13:45;;;;;;;54.38;27.95;;;;;;;10.46;67.71;100834.22;3171010;28;20104;-67
2022/11/11 06:15:17;;;;;;;52.00;27.17;;;;;;;10.66;67.16;100836.25;3170997;27;20047;-67
2022/11/11 06:16:49;;;;;;;52.83;26.60;;;;;;;10.89;66.69;100840.81;3171377;28;20161;-67
2022/11/11 06:18:20;;;;;;;54.63;26.55;;;;;;;11.12;65.96;100843.56;3170391;28;20047;-67
2022/11/11 06:19:53;;;;;;;56.55;26.23;;;;;;;11.20;64.78;100821.59;3171286;28;20176;-67
2022/11/11 06:21:25;;;;;;;53.95;26.98;;;;;;;11.65;64.06;100850.56;3170791;28;20051;-67
2022/11/11 06:22:56;;;;;;;53.00;26.40;;;;;;;11.98;63.21;100851.25;3171053;28;20044;-68
2022/11/11 06:24:28;;;;;;;45.50;25.60;;;;;;;12.29;62.67;100853.63;3171291;28;20062;-67
2022/11/11 06:26:11;;;;;;;50.67;24.73;;;;;;;12.63;61.68;100854.16;3170728;28;20070;-67
2022/11/11 06:27:43;;;;;;;41.33;22.50;;;;;;;13.00;60.63;100858.03;3170973;27;20130;-67
2022/11/11 06:29:15;;;;;;;51.03;24.55;;;;;;;13.31;59.68;100855.97;3172415;27;20413;-67
2022/11/11 06:30:47;;;;;;;45.35;24.00;;;;;;;13.65;58.93;100863.28;3170680;28;20056;-67
2022/11/11 06:32:19;;;;;;;47.03;23.75;;;;;;;13.99;58.02;100854.06;3170709;28;20845;-68
2022/11/11 06:33:51;;;;;;;45.97;22.83;;;;;;;14.36;57.38;100862.09;3164725;28;20047;-67
2022/11/11 06:35:23;;;;;;;43.33;22.50;;;;;;;14.73;56.44;100861.31;3170304;28;20472;-67
2022/11/11 06:36:55;;;;;;;35.38;20.38;;;;;;;15.06;55.92;100860.69;3170921;28;20058;-67
2022/11/11 06:38:26;;;;;;;44.95;21.92;;;;;;;15.45;55.25;100866.66;3170416;28;20082;-67
2022/11/11 06:39:57;;;;;;;45.47;20.85;;;;;;;15.78;54.60;100865.97;3172992;27;20043;-67
2022/11/11 06:41:29;;;;;;;42.80;21.92;;;;;;;16.14;53.59;100871.13;3170978;28;20117;-67
2022/11/11 06:43:01;;;;;;;37.72;20.05;;;;;;;16.30;53.07;100841.44;3170340;27;20508;-67
2022/11/11 06:44:33;;;;;;;38.55;20.15;;;;;;;16.83;52.28;100871.94;3170163;27;20048;-67
2022/11/11 06:46:05;;;;;;;36.55;19.83;;;;;;;17.17;51.60;100864.81;3170647;28;20191;-67
2022/11/11 06:47:37;;;;;;;39.58;19.23;;;;;;;17.58;50.77;100861.66;3170673;28;20051;-68
2022/11/11 06:49:09;;;;;;;33.13;19.02;;;;;;;17.94;49.81;100866.59;3170744;28;20375;-69
2022/11/11 06:50:42;;;;;;;33.95;19.35;;;;;;;18.13;48.96;100866.31;3170797;28;20055;-69
2022/11/11 06:52:14;;;;;;;35.92;18.33;;;;;;;18.33;48.60;100863.34;3170694;28;20440;-69
2022/11/11 06:53:46;;;;;;;40.70;18.17;;;;;;;18.42;47.61;100839.03;3170686;28;20127;-69
2022/11/11 06:55:17;;;;;;;33.97;17.98;;;;;;;18.73;46.93;100852.16;3170703;28;20048;-68
2022/11/11 06:56:49;;;;;;;41.20;18.75;;;;;;;19.03;46.74;100870.50;3170944;28;20047;-69
2022/11/11 06:58:22;;;;;;;46.75;17.55;;;;;;;18.93;46.36;100816.59;3170864;28;20047;-68
2022/11/11 06:59:53;;;;;;;32.88;17.33;;;;;;;19.49;45.58;100865.75;3170810;27;20428;-68
2022/11/11 07:01:25;;;;;;;34.67;17.40;;;;;;;19.72;45.10;100868.69;3170728;28;20055;-69
2022/11/11 07:02:56;;;;;;;34.03;17.83;;;;;;;19.99;44.95;100863.34;3170566;28;20050;-68
2022/11/11 07:04:28;;;;;;;34.60;17.42;;;;;;;20.21;44.07;100868.03;3170705;28;20043;-67
2022/11/11 07:06:02;;;;;;;28.52;17.75;;;;;;;20.45;43.72;100860.22;3170143;28;20051;-66
2022/11/11 07:07:34;;;;;;;36.88;18.00;;;;;;;20.66;43.45;100848.16;3170194;28;20123;-67
2022/11/11 07:09:06;;;;;;;34.28;18.23;;;;;;;20.88;42.94;100851.91;3170110;28;20104;-67
2022/11/11 07:10:40;;;;;;;28.48;17.10;;;;;;;21.04;42.54;100846.38;3170639;28;20435;-68
2022/11/11 07:12:12;;;;;;;29.42;16.50;;;;;;;21.19;42.01;100839.94;3170227;28;20515;-67
2022/11/11 07:13:44;;;;;;;36.08;16.73;;;;;;;21.39;42.16;100849.13;3157788;28;20048;-67
2022/11/11 07:15:15;;;;;;;34.35;16.20;;;;;;;21.47;41.63;100844.06;3168956;28;20051;-66
2022/11/11 07:16:47;;;;;;;27.42;15.30;;;;;;;21.55;41.13;100846.16;3170540;27;20068;-68
2022/11/11 07:18:19;;;;;;;30.30;15.50;;;;;;;21.72;40.63;100852.88;3170312;28;20089;-68
2022/11/11 07:19:51;;;;;;;30.75;14.77;;;;;;;21.76;40.88;100846.34;3170401;28;20432;-66
2022/11/11 07:21:24;;;;;;;30.55;15.25;;;;;;;21.87;40.69;100849.06;3170421;28;20113;-68
2022/11/11 07:22:56;;;;;;;21.25;14.88;;;;;;;21.90;40.14;100850.63;3170068;28;20043;-68
2022/11/11 07:24:28;;;;;;;27.98;16.00;;;;;;;21.90;40.18;100850.63;3170465;28;20189;-69
2022/11/11 07:26:00;;;;;;;24.88;14.85;;;;;;;21.93;40.62;100848.59;3170111;28;20476;-67
2022/11/11 07:27:32;;;;;;;25.75;16.02;;;;;;;22.04;40.36;100851.25;3170314;28;20051;-67
2022/11/11 07:29:04;;;;;;;24.27;15.25;;;;;;;22.07;40.53;100834.28;3179151;27;20043;-67
2022/11/11 07:30:36;;;;;;;24.85;14.60;;;;;;;22.08;39.96;100835.97;3175026;27;20055;-68
2022/11/11 07:32:07;;;;;;;25.50;15.13;;;;;;;22.13;39.81;100830.31;3169970;28;20048;-68
2022/11/11 07:33:39;;;;;;;25.20;15.18;;;;;;;22.24;40.31;100832.97;3170314;28;20044;-68
2022/11/11 07:35:13;;;;;;;27.08;14.73;;;;;;;22.32;39.71;100833.25;3170086;28;20502;-69
2022/11/11 07:36:46;;;;;;;;;;;;;;;22.45;40.29;100838.41;3170032;28;20083;-67
2022/11/11 07:38:17;;;;;;;22.40;14.30;;;;;;;22.38;39.78;100846.03;3170143;28;19920;-71
2022/11/11 07:39:49;;;;;;;24.25;13.98;;;;;;;22.30;39.10;100848.41;3167155;28;20087;-70
2022/11/11 07:41:23;;;;;;;21.85;14.40;;;;;;;22.06;39.75;100845.00;3175636;27;20076;-67
2022/11/11 07:42:54;;;;;;;;;;;;;;;21.74;39.76;100853.56;3183048;27;20043;-69
2022/11/11 07:44:26;;;;;;;65.88;40.80;;;;;;;21.48;40.57;100856.38;3177828;27;19924;-75
2022/11/11 07:46:04;;;;;;;26.67;17.83;;;;;;;21.31;40.67;100862.03;3181140;27;20051;-67
2022/11/11 07:47:36;;;;;;;31.00;17.15;;;;;;;20.96;41.04;100838.13;3180358;27;20039;-69
2022/11/11 07:49:07;;;;;;;30.73;14.65;;;;;;;20.90;41.38;100865.88;3182022;27;20048;-74
2022/11/11 07:50:39;;;;;;;26.60;15.27;;;;;;;20.80;41.69;100854.28;3169832;28;20062;-70
2022/11/11 07:52:12;;;;;;;26.65;15.32;;;;;;;20.59;42.11;100868.06;3160546;28;20390;-78
2022/11/11 07:53:44;;;;;;;24.48;15.27;;;;;;;20.23;42.46;100855.53;3169822;28;20381;-77
2022/11/11 07:55:16;;;;;;;33.50;16.00;;;;;;;20.00;43.07;100870.34;3169868;28;20052;-78
2022/11/11 07:56:48;;;;;;;28.05;15.10;;;;;;;19.80;43.21;100862.91;3170541;28;20048;-74
2022/11/11 07:58:20;;;;;;;28.05;15.30;;;;;;;19.66;43.50;100866.47;3169765;28;20117;-72
2022/11/11 07:59:52;;;;;;;26.52;16.08;;;;;;;19.42;43.93;100860.97;3167942;28;20051;-73
2022/11/11 08:01:24;;;;;;;28.27;14.82;;;;;;;19.21;44.45;100861.41;3169685;27;20043;-73
2022/11/11 08:02:56;;;;;;;25.13;16.17;;;;;;;19.03;44.97;100863.44;3170168;28;20044;-73
2022/11/11 08:04:27;;;;;;;25.95;14.73;;;;;;;18.90;45.26;100856.38;3172890;27;20447;-71
2022/11/11 08:06:02;;;;;;;31.85;15.32;;;;;;;18.82;45.54;100860.38;3179252;27;20102;-72
2022/11/11 08:07:36;;;;;;;29.50;15.80;;;;;;;18.52;45.47;100820.03;3173814;27;20047;-73
2022/11/11 08:09:08;;;;;;;46.78;23.05;;;;;;;18.48;45.91;100856.28;3170191;28;20062;-73
2022/11/11 08:10:40;;;;;;;245.02;110.57;;;;;;;18.25;46.32;100860.34;3170179;28;20063;-69
2022/11/11 08:14:00;;;;;;;33.70;21.13;;;;;;;17.88;47.45;100869.59;3165107;28;20036;-72
2022/11/11 08:15:32;;;;;;;34.45;18.35;;;;;;;17.77;47.84;100864.06;3170176;28;20055;-73
2022/11/11 08:17:04;;;;;;;32.45;17.35;;;;;;;17.76;48.02;100868.47;3170282;27;20194;-74
2022/11/11 08:18:36;;;;;;;24.00;14.95;;;;;;;17.75;47.94;100872.06;3171218;28;20136;-74
2022/11/11 08:20:09;;;;;;;28.23;14.50;;;;;;;17.69;47.98;100865.34;3178089;27;20115;-75